sensor_id;sensor_type;location;lat;lon;timestamp;temperature;humidity
20728;DHT22;10525;50.154;8.198;2022-12-13T00:00:30;-5.40;99.90
20728;DHT22;10525;50.154;8.198;2022-12-13T00:02:56;-5.60;99.90
20728;DHT22;10525;50.154;8.198;2022-12-13T00:05:23;-5.50;99.90
20728;DHT22;10525;50.154;8.198;2022-12-13T00:07:50;-5.40;99.90
20728;DHT22;10525;50.154;8.198;2022-12-13T00:10:17;-5.40;99.90
20728;DHT22;10525;50.154;8.198;2022-12-13T00:12:43;-5.50;99.90
20728;DHT22;10525;50.154;8.198;2022-12-13T00:15:11;-5.60;99.90
20728;DHT22;10525;50.154;8.198;2022-12-13T00:17:38;-5.70;99.90
20728;DHT22;10525;50.154;8.198;2022-12-13T00:20:05;-5.60;99.90
20728;DHT22;10525;50.154;8.198;2022-12-13T00:22:33;-5.70;99.90
20728;DHT22;10525;50.154;8.198;2022-12-13T00:24:59;-5.80;99.90
20728;DHT22;10525;50.154;8.198;2022-12-13T00:27:26;-5.80;99.90
20728;DHT22;10525;50.154;8.198;2022-12-13T00:29:53;-5.80;99.90
20728;DHT22;10525;50.154;8.198;2022-12-13T00:32:21;-5.80;99.90
20728;DHT22;10525;50.154;8.198;2022-12-13T00:34:48;-5.70;99.90
20728;DHT22;10525;50.154;8.198;2022-12-13T00:37:14;-5.70;99.90
20728;DHT22;10525;50.154;8.198;2022-12-13T00:39:41;-5.50;99.90
20728;DHT22;10525;50.154;8.198;2022-12-13T00:42:08;-5.80;99.90
20728;DHT22;10525;50.154;8.198;2022-12-13T00:44:35;-6.00;99.90
20728;DHT22;10525;50.154;8.198;2022-12-13T00:47:01;-5.70;99.90
20728;DHT22;10525;50.154;8.198;2022-12-13T00:49:29;-5.80;99.90
20728;DHT22;10525;50.154;8.198;2022-12-13T00:51:56;-5.90;99.90
20728;DHT22;10525;50.154;8.198;2022-12-13T00:54:24;-6.00;99.90
20728;DHT22;10525;50.154;8.198;2022-12-13T00:56:51;-6.00;99.90
20728;DHT22;10525;50.154;8.198;2022-12-13T00:59:18;-5.90;99.90
20728;DHT22;10525;50.154;8.198;2022-12-13T01:01:44;-6.00;99.90
20728;DHT22;10525;50.154;8.198;2022-12-13T01:04:11;-6.00;99.90
20728;DHT22;10525;50.154;8.198;2022-12-13T01:06:41;-5.90;99.90
20728;DHT22;10525;50.154;8.198;2022-12-13T01:09:14;-6.00;99.90
20728;DHT22;10525;50.154;8.198;2022-12-13T01:11:42;-6.10;99.90
20728;DHT22;10525;50.154;8.198;2022-12-13T01:14:09;-6.20;99.90
20728;DHT22;10525;50.154;8.198;2022-12-13T01:16:36;-6.20;99.90
20728;DHT22;10525;50.154;8.198;2022-12-13T01:19:03;-6.10;99.90
20728;DHT22;10525;50.154;8.198;2022-12-13T01:21:30;-6.00;99.90
20728;DHT22;10525;50.154;8.198;2022-12-13T01:24:01;-5.90;99.90
20728;DHT22;10525;50.154;8.198;2022-12-13T01:26:28;-6.20;99.90
20728;DHT22;10525;50.154;8.198;2022-12-13T01:28:55;-6.20;99.90
20728;DHT22;10525;50.154;8.198;2022-12-13T01:31:22;-6.30;99.90
20728;DHT22;10525;50.154;8.198;2022-12-13T01:33:48;-6.20;99.90
20728;DHT22;10525;50.154;8.198;2022-12-13T01:36:18;-6.20;99.90
20728;DHT22;10525;50.154;8.198;2022-12-13T01:38:44;-6.20;99.90
20728;DHT22;10525;50.154;8.198;2022-12-13T01:41:15;-6.10;99.90
20728;DHT22;10525;50.154;8.198;2022-12-13T01:43:52;-6.20;99.90
20728;DHT22;10525;50.154;8.198;2022-12-13T01:46:19;-6.20;99.90
20728;DHT22;10525;50.154;8.198;2022-12-13T01:48:50;-6.20;99.90
20728;DHT22;10525;50.154;8.198;2022-12-13T01:51:23;-6.20;99.90
20728;DHT22;10525;50.154;8.198;2022-12-13T01:53:52;-6.40;99.90
20728;DHT22;10525;50.154;8.198;2022-12-13T01:56:27;-6.40;99.90
20728;DHT22;10525;50.154;8.198;2022-12-13T01:58:56;-6.30;99.90
20728;DHT22;10525;50.154;8.198;2022-12-13T02:01:24;-6.40;99.90
20728;DHT22;10525;50.154;8.198;2022-12-13T02:03:51;-6.40;99.90
20728;DHT22;10525;50.154;8.198;2022-12-13T02:06:22;-6.40;99.90
20728;DHT22;10525;50.154;8.198;2022-12-13T02:08:50;-6.40;99.90
20728;DHT22;10525;50.154;8.198;2022-12-13T02:11:17;-6.40;99.90
20728;DHT22;10525;50.154;8.198;2022-12-13T02:13:45;-6.40;99.90
20728;DHT22;10525;50.154;8.198;2022-12-13T02:16:18;-6.50;99.90
20728;DHT22;10525;50.154;8.198;2022-12-13T02:18:57;-6.40;99.90
20728;DHT22;10525;50.154;8.198;2022-12-13T02:21:32;-6.60;99.90
20728;DHT22;10525;50.154;8.198;2022-12-13T02:24:14;-6.50;99.90
20728;DHT22;10525;50.154;8.198;2022-12-13T02:27:12;-6.30;99.90
20728;DHT22;10525;50.154;8.198;2022-12-13T02:30:18;-6.50;99.90
20728;DHT22;10525;50.154;8.198;2022-12-13T02:33:10;-6.40;99.90
20728;DHT22;10525;50.154;8.198;2022-12-13T02:35:44;-6.40;99.90
20728;DHT22;10525;50.154;8.198;2022-12-13T02:38:15;-6.50;99.90
20728;DHT22;10525;50.154;8.198;2022-12-13T02:40:46;-6.50;99.90
20728;DHT22;10525;50.154;8.198;2022-12-13T02:43:20;-6.50;99.90
20728;DHT22;10525;50.154;8.198;2022-12-13T02:45:53;-6.40;99.90
20728;DHT22;10525;50.154;8.198;2022-12-13T02:48:24;-6.50;99.90
20728;DHT22;10525;50.154;8.198;2022-12-13T02:50:52;-6.60;99.90
20728;DHT22;10525;50.154;8.198;2022-12-13T02:53:20;-6.30;99.90
20728;DHT22;10525;50.154;8.198;2022-12-13T02:55:48;-6.50;99.90
20728;DHT22;10525;50.154;8.198;2022-12-13T02:58:18;-6.30;99.90
20728;DHT22;10525;50.154;8.198;2022-12-13T03:00:55;-6.50;99.90
20728;DHT22;10525;50.154;8.198;2022-12-13T03:03:32;-6.40;99.90
20728;DHT22;10525;50.154;8.198;2022-12-13T03:06:19;-6.50;99.90
20728;DHT22;10525;50.154;8.198;2022-12-13T03:09:05;-6.40;99.90
20728;DHT22;10525;50.154;8.198;2022-12-13T03:11:43;-6.50;99.90
20728;DHT22;10525;50.154;8.198;2022-12-13T03:14:32;-6.40;99.90
20728;DHT22;10525;50.154;8.198;2022-12-13T03:17:05;-6.50;99.90
20728;DHT22;10525;50.154;8.198;2022-12-13T03:19:33;-6.40;99.90
20728;DHT22;10525;50.154;8.198;2022-12-13T03:22:00;-6.60;99.90
20728;DHT22;10525;50.154;8.198;2022-12-13T03:24:30;-6.60;99.90
20728;DHT22;10525;50.154;8.198;2022-12-13T03:26:57;-6.70;99.90
20728;DHT22;10525;50.154;8.198;2022-12-13T03:29:24;-6.60;99.90
20728;DHT22;10525;50.154;8.198;2022-12-13T03:31:51;-6.70;99.90
20728;DHT22;10525;50.154;8.198;2022-12-13T03:34:19;-6.70;99.90
20728;DHT22;10525;50.154;8.198;2022-12-13T03:36:46;-6.70;99.90
20728;DHT22;10525;50.154;8.198;2022-12-13T03:39:13;-6.70;99.90
20728;DHT22;10525;50.154;8.198;2022-12-13T03:41:39;-6.70;99.90
20728;DHT22;10525;50.154;8.198;2022-12-13T03:44:06;-6.60;99.90
20728;DHT22;10525;50.154;8.198;2022-12-13T03:46:34;-6.70;99.90
20728;DHT22;10525;50.154;8.198;2022-12-13T03:49:00;-6.80;99.90
20728;DHT22;10525;50.154;8.198;2022-12-13T03:51:28;-6.60;99.90
20728;DHT22;10525;50.154;8.198;2022-12-13T03:53:55;-6.60;99.90
20728;DHT22;10525;50.154;8.198;2022-12-13T03:56:22;-6.60;99.90
20728;DHT22;10525;50.154;8.198;2022-12-13T03:58:48;-6.60;99.90
20728;DHT22;10525;50.154;8.198;2022-12-13T04:01:16;-6.70;99.90
20728;DHT22;10525;50.154;8.198;2022-12-13T04:03:45;-6.70;99.90
20728;DHT22;10525;50.154;8.198;2022-12-13T04:06:12;-6.80;99.90
20728;DHT22;10525;50.154;8.198;2022-12-13T04:08:40;-6.70;99.90
20728;DHT22;10525;50.154;8.198;2022-12-13T04:11:07;-6.80;99.90
20728;DHT22;10525;50.154;8.198;2022-12-13T04:13:52;-6.70;99.90
20728;DHT22;10525;50.154;8.198;2022-12-13T04:16:19;-6.80;99.90
20728;DHT22;10525;50.154;8.198;2022-12-13T04:18:46;-6.80;99.90
20728;DHT22;10525;50.154;8.198;2022-12-13T04:21:13;-6.80;99.90
20728;DHT22;10525;50.154;8.198;2022-12-13T04:23:41;-6.80;99.90
20728;DHT22;10525;50.154;8.198;2022-12-13T04:26:07;-6.50;99.90
20728;DHT22;10525;50.154;8.198;2022-12-13T04:28:34;-6.80;99.90
20728;DHT22;10525;50.154;8.198;2022-12-13T04:31:01;-6.80;99.90
20728;DHT22;10525;50.154;8.198;2022-12-13T04:33:28;-6.80;99.90
20728;DHT22;10525;50.154;8.198;2022-12-13T04:35:57;-6.50;99.90
20728;DHT22;10525;50.154;8.198;2022-12-13T04:38:23;-6.80;99.90
20728;DHT22;10525;50.154;8.198;2022-12-13T04:40:51;-6.70;99.90
20728;DHT22;10525;50.154;8.198;2022-12-13T04:43:18;-6.70;99.90
20728;DHT22;10525;50.154;8.198;2022-12-13T04:45:45;-6.80;99.90
20728;DHT22;10525;50.154;8.198;2022-12-13T04:48:12;-6.70;99.90
20728;DHT22;10525;50.154;8.198;2022-12-13T04:50:39;-6.70;99.90
20728;DHT22;10525;50.154;8.198;2022-12-13T04:53:05;-6.70;99.90
20728;DHT22;10525;50.154;8.198;2022-12-13T04:55:32;-6.90;99.90
20728;DHT22;10525;50.154;8.198;2022-12-13T04:58:00;-6.90;99.90
20728;DHT22;10525;50.154;8.198;2022-12-13T05:00:27;-7.00;99.90
20728;DHT22;10525;50.154;8.198;2022-12-13T05:02:54;-7.00;99.90
20728;DHT22;10525;50.154;8.198;2022-12-13T05:05:20;-6.90;99.90
20728;DHT22;10525;50.154;8.198;2022-12-13T05:07:47;-6.90;99.90
20728;DHT22;10525;50.154;8.198;2022-12-13T05:10:14;-6.90;99.90
20728;DHT22;10525;50.154;8.198;2022-12-13T05:12:40;-6.70;99.90
20728;DHT22;10525;50.154;8.198;2022-12-13T05:15:09;-6.80;99.90
20728;DHT22;10525;50.154;8.198;2022-12-13T05:17:36;-7.00;99.90
20728;DHT22;10525;50.154;8.198;2022-12-13T05:20:03;-6.90;99.90
20728;DHT22;10525;50.154;8.198;2022-12-13T05:22:30;-6.90;99.90
20728;DHT22;10525;50.154;8.198;2022-12-13T05:24:57;-7.00;99.90
20728;DHT22;10525;50.154;8.198;2022-12-13T05:27:24;-7.00;99.90
20728;DHT22;10525;50.154;8.198;2022-12-13T05:29:50;-6.90;99.90
20728;DHT22;10525;50.154;8.198;2022-12-13T05:32:18;-7.10;99.90
20728;DHT22;10525;50.154;8.198;2022-12-13T05:34:45;-7.00;99.90
20728;DHT22;10525;50.154;8.198;2022-12-13T05:37:12;-7.00;99.90
20728;DHT22;10525;50.154;8.198;2022-12-13T05:39:38;-7.00;99.90
20728;DHT22;10525;50.154;8.198;2022-12-13T05:42:05;-6.90;99.90
20728;DHT22;10525;50.154;8.198;2022-12-13T05:44:32;-6.90;99.90
20728;DHT22;10525;50.154;8.198;2022-12-13T05:46:59;-6.90;99.90
20728;DHT22;10525;50.154;8.198;2022-12-13T05:49:27;-7.00;99.90
20728;DHT22;10525;50.154;8.198;2022-12-13T05:51:54;-6.80;99.90
20728;DHT22;10525;50.154;8.198;2022-12-13T05:54:21;-7.00;99.90
20728;DHT22;10525;50.154;8.198;2022-12-13T05:56:48;-7.10;99.90
20728;DHT22;10525;50.154;8.198;2022-12-13T05:59:15;-7.10;99.90
20728;DHT22;10525;50.154;8.198;2022-12-13T06:01:42;-7.10;99.90
20728;DHT22;10525;50.154;8.198;2022-12-13T06:04:08;-7.00;99.90
20728;DHT22;10525;50.154;8.198;2022-12-13T06:06:36;-7.10;99.90
20728;DHT22;10525;50.154;8.198;2022-12-13T06:09:03;-7.00;99.90
20728;DHT22;10525;50.154;8.198;2022-12-13T06:11:30;-7.00;99.90
20728;DHT22;10525;50.154;8.198;2022-12-13T06:13:57;-7.10;99.90
20728;DHT22;10525;50.154;8.198;2022-12-13T06:16:23;-7.10;99.90
20728;DHT22;10525;50.154;8.198;2022-12-13T06:18:51;-7.00;99.90
20728;DHT22;10525;50.154;8.198;2022-12-13T06:21:18;-7.00;99.90
20728;DHT22;10525;50.154;8.198;2022-12-13T06:23:46;-7.10;99.90
20728;DHT22;10525;50.154;8.198;2022-12-13T06:26:12;-7.00;99.90
20728;DHT22;10525;50.154;8.198;2022-12-13T06:28:39;-7.10;99.90
20728;DHT22;10525;50.154;8.198;2022-12-13T06:31:06;-7.10;99.90
20728;DHT22;10525;50.154;8.198;2022-12-13T06:33:33;-7.10;99.90
20728;DHT22;10525;50.154;8.198;2022-12-13T06:36:01;-7.10;99.90
20728;DHT22;10525;50.154;8.198;2022-12-13T06:38:29;-7.20;99.90
20728;DHT22;10525;50.154;8.198;2022-12-13T06:41:07;-7.20;99.90
20728;DHT22;10525;50.154;8.198;2022-12-13T06:43:34;-7.10;99.90
20728;DHT22;10525;50.154;8.198;2022-12-13T06:46:02;-7.00;99.90
20728;DHT22;10525;50.154;8.198;2022-12-13T06:48:29;-7.00;99.90
20728;DHT22;10525;50.154;8.198;2022-12-13T06:50:59;-7.10;99.90
20728;DHT22;10525;50.154;8.198;2022-12-13T06:53:26;-7.10;99.90
20728;DHT22;10525;50.154;8.198;2022-12-13T06:55:52;-7.20;99.90
20728;DHT22;10525;50.154;8.198;2022-12-13T06:58:20;-7.10;99.90
20728;DHT22;10525;50.154;8.198;2022-12-13T07:00:47;-7.20;99.90
20728;DHT22;10525;50.154;8.198;2022-12-13T07:03:14;-7.20;99.90
20728;DHT22;10525;50.154;8.198;2022-12-13T07:05:40;-7.30;99.90
20728;DHT22;10525;50.154;8.198;2022-12-13T07:08:08;-7.30;99.90
20728;DHT22;10525;50.154;8.198;2022-12-13T07:10:37;-7.20;99.90
20728;DHT22;10525;50.154;8.198;2022-12-13T07:13:05;-7.20;99.90
20728;DHT22;10525;50.154;8.198;2022-12-13T07:15:33;-7.30;99.90
20728;DHT22;10525;50.154;8.198;2022-12-13T07:18:00;-7.30;99.90
20728;DHT22;10525;50.154;8.198;2022-12-13T07:20:26;-7.30;99.90
20728;DHT22;10525;50.154;8.198;2022-12-13T07:22:53;-7.30;99.90
20728;DHT22;10525;50.154;8.198;2022-12-13T07:25:21;-7.20;99.90
20728;DHT22;10525;50.154;8.198;2022-12-13T07:27:52;-7.20;99.90
20728;DHT22;10525;50.154;8.198;2022-12-13T07:30:20;-7.20;99.90
20728;DHT22;10525;50.154;8.198;2022-12-13T07:32:48;-7.10;99.90
20728;DHT22;10525;50.154;8.198;2022-12-13T07:35:15;-7.30;99.90
20728;DHT22;10525;50.154;8.198;2022-12-13T07:37:42;-7.00;99.90
20728;DHT22;10525;50.154;8.198;2022-12-13T07:40:10;-7.20;99.90
20728;DHT22;10525;50.154;8.198;2022-12-13T07:42:36;-7.10;99.90
20728;DHT22;10525;50.154;8.198;2022-12-13T07:45:04;-7.10;99.90
20728;DHT22;10525;50.154;8.198;2022-12-13T07:47:31;-7.00;99.90
20728;DHT22;10525;50.154;8.198;2022-12-13T07:49:59;-6.70;99.90
20728;DHT22;10525;50.154;8.198;2022-12-13T07:52:25;-6.80;99.90
20728;DHT22;10525;50.154;8.198;2022-12-13T07:54:52;-7.00;99.90
20728;DHT22;10525;50.154;8.198;2022-12-13T07:57:19;-6.70;99.90
20728;DHT22;10525;50.154;8.198;2022-12-13T07:59:45;-6.70;99.90
20728;DHT22;10525;50.154;8.198;2022-12-13T08:02:12;-6.60;99.90
20728;DHT22;10525;50.154;8.198;2022-12-13T08:04:41;-6.40;99.90
20728;DHT22;10525;50.154;8.198;2022-12-13T08:07:09;-6.30;99.90
20728;DHT22;10525;50.154;8.198;2022-12-13T08:09:36;-6.60;99.90
20728;DHT22;10525;50.154;8.198;2022-12-13T08:12:03;-6.50;99.90
20728;DHT22;10525;50.154;8.198;2022-12-13T08:14:30;-6.50;99.90
20728;DHT22;10525;50.154;8.198;2022-12-13T08:16:57;-6.20;99.90
20728;DHT22;10525;50.154;8.198;2022-12-13T08:19:24;-5.80;99.90
20728;DHT22;10525;50.154;8.198;2022-12-13T08:21:50;-5.90;99.90
20728;DHT22;10525;50.154;8.198;2022-12-13T08:24:19;-5.70;99.90
20728;DHT22;10525;50.154;8.198;2022-12-13T08:26:45;-5.70;99.90
20728;DHT22;10525;50.154;8.198;2022-12-13T08:29:12;-5.70;99.90
20728;DHT22;10525;50.154;8.198;2022-12-13T08:31:39;-5.50;99.90
20728;DHT22;10525;50.154;8.198;2022-12-13T08:34:06;-5.40;99.90
20728;DHT22;10525;50.154;8.198;2022-12-13T08:36:33;-5.30;99.90
20728;DHT22;10525;50.154;8.198;2022-12-13T08:39:00;-5.30;99.90
20728;DHT22;10525;50.154;8.198;2022-12-13T08:41:28;-5.20;99.90
20728;DHT22;10525;50.154;8.198;2022-12-13T08:43:55;-4.80;99.90
20728;DHT22;10525;50.154;8.198;2022-12-13T08:46:22;-4.90;99.90
20728;DHT22;10525;50.154;8.198;2022-12-13T08:48:49;-5.00;99.90
20728;DHT22;10525;50.154;8.198;2022-12-13T08:51:18;-4.70;99.90
20728;DHT22;10525;50.154;8.198;2022-12-13T08:53:48;-4.50;99.90
20728;DHT22;10525;50.154;8.198;2022-12-13T08:56:15;-4.40;99.90
20728;DHT22;10525;50.154;8.198;2022-12-13T08:58:48;-4.30;99.90
20728;DHT22;10525;50.154;8.198;2022-12-13T09:01:16;-4.30;99.90
20728;DHT22;10525;50.154;8.198;2022-12-13T09:03:43;-4.30;99.90
20728;DHT22;10525;50.154;8.198;2022-12-13T09:06:11;-4.20;99.90
20728;DHT22;10525;50.154;8.198;2022-12-13T09:08:39;-4.20;99.90
20728;DHT22;10525;50.154;8.198;2022-12-13T09:11:07;-4.20;99.90
20728;DHT22;10525;50.154;8.198;2022-12-13T09:13:35;-4.10;99.90
20728;DHT22;10525;50.154;8.198;2022-12-13T09:16:05;-4.00;99.90
20728;DHT22;10525;50.154;8.198;2022-12-13T09:18:32;-3.90;99.90
20728;DHT22;10525;50.154;8.198;2022-12-13T09:20:59;-3.90;99.90
20728;DHT22;10525;50.154;8.198;2022-12-13T09:23:26;-3.80;99.90
20728;DHT22;10525;50.154;8.198;2022-12-13T09:25:53;-3.70;99.90
20728;DHT22;10525;50.154;8.198;2022-12-13T09:28:21;-3.60;99.90
20728;DHT22;10525;50.154;8.198;2022-12-13T09:30:48;-3.40;99.90
20728;DHT22;10525;50.154;8.198;2022-12-13T09:33:17;-3.40;99.90
20728;DHT22;10525;50.154;8.198;2022-12-13T09:35:44;-3.40;99.90
20728;DHT22;10525;50.154;8.198;2022-12-13T09:38:11;-3.30;99.90
20728;DHT22;10525;50.154;8.198;2022-12-13T09:40:39;-3.30;99.90
20728;DHT22;10525;50.154;8.198;2022-12-13T09:43:10;-3.30;99.90
20728;DHT22;10525;50.154;8.198;2022-12-13T09:45:39;-3.20;99.90
20728;DHT22;10525;50.154;8.198;2022-12-13T09:48:10;-3.20;99.90
20728;DHT22;10525;50.154;8.198;2022-12-13T09:50:39;-3.20;99.90
20728;DHT22;10525;50.154;8.198;2022-12-13T09:53:06;-3.20;99.90
20728;DHT22;10525;50.154;8.198;2022-12-13T09:55:38;-3.00;99.90
20728;DHT22;10525;50.154;8.198;2022-12-13T09:58:12;-3.10;99.90
20728;DHT22;10525;50.154;8.198;2022-12-13T10:00:40;-2.90;99.90
20728;DHT22;10525;50.154;8.198;2022-12-13T10:03:12;-3.00;99.90
20728;DHT22;10525;50.154;8.198;2022-12-13T10:05:44;-3.00;99.90
20728;DHT22;10525;50.154;8.198;2022-12-13T10:08:13;-3.00;99.90
20728;DHT22;10525;50.154;8.198;2022-12-13T10:10:40;-2.90;99.90
20728;DHT22;10525;50.154;8.198;2022-12-13T10:13:14;-2.90;99.90
20728;DHT22;10525;50.154;8.198;2022-12-13T10:15:45;-2.80;99.90
20728;DHT22;10525;50.154;8.198;2022-12-13T10:18:15;-2.80;99.90
20728;DHT22;10525;50.154;8.198;2022-12-13T10:20:48;-2.80;99.90
20728;DHT22;10525;50.154;8.198;2022-12-13T10:23:15;-2.70;99.90
20728;DHT22;10525;50.154;8.198;2022-12-13T10:25:45;-2.60;99.90
20728;DHT22;10525;50.154;8.198;2022-12-13T10:28:15;-2.60;99.90
20728;DHT22;10525;50.154;8.198;2022-12-13T10:30:42;-2.60;99.90
20728;DHT22;10525;50.154;8.198;2022-12-13T10:33:19;-2.50;99.90
20728;DHT22;10525;50.154;8.198;2022-12-13T10:36:13;-2.50;99.90
20728;DHT22;10525;50.154;8.198;2022-12-13T10:38:42;-2.50;99.90
20728;DHT22;10525;50.154;8.198;2022-12-13T10:41:31;-2.50;99.90
20728;DHT22;10525;50.154;8.198;2022-12-13T10:44:19;-2.50;99.90
20728;DHT22;10525;50.154;8.198;2022-12-13T10:47:01;-2.50;99.90
20728;DHT22;10525;50.154;8.198;2022-12-13T10:49:36;-2.40;99.90
20728;DHT22;10525;50.154;8.198;2022-12-13T10:52:06;-2.40;99.90
20728;DHT22;10525;50.154;8.198;2022-12-13T10:54:46;-2.40;99.90
20728;DHT22;10525;50.154;8.198;2022-12-13T10:57:13;-2.40;99.90
20728;DHT22;10525;50.154;8.198;2022-12-13T10:59:48;-2.30;99.90
20728;DHT22;10525;50.154;8.198;2022-12-13T11:02:28;-2.20;99.90
20728;DHT22;10525;50.154;8.198;2022-12-13T11:04:56;-2.10;99.90
20728;DHT22;10525;50.154;8.198;2022-12-13T11:07:27;-2.10;99.90
20728;DHT22;10525;50.154;8.198;2022-12-13T11:09:55;-2.00;99.90
20728;DHT22;10525;50.154;8.198;2022-12-13T11:12:23;-2.00;99.90
20728;DHT22;10525;50.154;8.198;2022-12-13T11:14:54;-2.00;99.90
20728;DHT22;10525;50.154;8.198;2022-12-13T11:17:24;-2.00;99.90
20728;DHT22;10525;50.154;8.198;2022-12-13T11:19:52;-2.00;99.90
20728;DHT22;10525;50.154;8.198;2022-12-13T11:22:22;-2.00;99.90
20728;DHT22;10525;50.154;8.198;2022-12-13T11:24:55;-2.00;99.90
20728;DHT22;10525;50.154;8.198;2022-12-13T11:27:40;-1.90;99.90
20728;DHT22;10525;50.154;8.198;2022-12-13T11:30:11;-1.90;99.90
20728;DHT22;10525;50.154;8.198;2022-12-13T11:32:57;-1.90;99.90
20728;DHT22;10525;50.154;8.198;2022-12-13T11:35:28;-2.00;99.90
20728;DHT22;10525;50.154;8.198;2022-12-13T11:38:04;-1.90;99.90
20728;DHT22;10525;50.154;8.198;2022-12-13T11:40:43;-1.90;99.90
20728;DHT22;10525;50.154;8.198;2022-12-13T11:43:17;-1.80;99.90
20728;DHT22;10525;50.154;8.198;2022-12-13T11:45:51;-1.80;99.90
20728;DHT22;10525;50.154;8.198;2022-12-13T11:48:25;-1.80;99.90
20728;DHT22;10525;50.154;8.198;2022-12-13T11:50:55;-1.80;99.90
20728;DHT22;10525;50.154;8.198;2022-12-13T11:53:27;-1.90;99.90
20728;DHT22;10525;50.154;8.198;2022-12-13T11:56:03;-1.80;99.90
20728;DHT22;10525;50.154;8.198;2022-12-13T11:58:34;-1.80;99.90
20728;DHT22;10525;50.154;8.198;2022-12-13T12:01:06;-1.80;99.90
20728;DHT22;10525;50.154;8.198;2022-12-13T12:03:38;-1.70;99.90
20728;DHT22;10525;50.154;8.198;2022-12-13T12:06:11;-1.60;99.90
20728;DHT22;10525;50.154;8.198;2022-12-13T12:08:42;-1.60;99.90
20728;DHT22;10525;50.154;8.198;2022-12-13T12:11:18;-1.60;99.90
20728;DHT22;10525;50.154;8.198;2022-12-13T12:13:49;-1.60;99.90
20728;DHT22;10525;50.154;8.198;2022-12-13T12:16:23;-1.60;99.90
20728;DHT22;10525;50.154;8.198;2022-12-13T12:18:51;-1.60;99.90
20728;DHT22;10525;50.154;8.198;2022-12-13T12:21:29;-1.60;99.90
20728;DHT22;10525;50.154;8.198;2022-12-13T12:24:08;-1.70;99.90
20728;DHT22;10525;50.154;8.198;2022-12-13T12:26:50;-1.70;99.90
20728;DHT22;10525;50.154;8.198;2022-12-13T12:29:38;-1.70;99.90
20728;DHT22;10525;50.154;8.198;2022-12-13T12:32:12;-1.70;99.90
20728;DHT22;10525;50.154;8.198;2022-12-13T12:34:46;-1.70;99.90
20728;DHT22;10525;50.154;8.198;2022-12-13T12:37:23;-1.80;99.90
20728;DHT22;10525;50.154;8.198;2022-12-13T12:40:17;-1.80;99.90
20728;DHT22;10525;50.154;8.198;2022-12-13T12:42:54;-1.90;99.90
20728;DHT22;10525;50.154;8.198;2022-12-13T12:45:32;-1.90;99.90
20728;DHT22;10525;50.154;8.198;2022-12-13T12:48:13;-2.00;99.90
20728;DHT22;10525;50.154;8.198;2022-12-13T12:50:47;-2.00;99.90
20728;DHT22;10525;50.154;8.198;2022-12-13T12:53:32;-2.00;99.90
20728;DHT22;10525;50.154;8.198;2022-12-13T12:56:11;-2.00;99.90
20728;DHT22;10525;50.154;8.198;2022-12-13T12:58:47;-2.00;99.90
20728;DHT22;10525;50.154;8.198;2022-12-13T13:01:28;-2.00;99.90
20728;DHT22;10525;50.154;8.198;2022-12-13T13:04:02;-1.90;99.90
20728;DHT22;10525;50.154;8.198;2022-12-13T13:06:34;-1.90;99.90
20728;DHT22;10525;50.154;8.198;2022-12-13T13:09:04;-1.90;99.90
20728;DHT22;10525;50.154;8.198;2022-12-13T13:11:34;-1.80;99.90
20728;DHT22;10525;50.154;8.198;2022-12-13T13:14:05;-1.80;99.90
20728;DHT22;10525;50.154;8.198;2022-12-13T13:16:37;-1.70;99.90
20728;DHT22;10525;50.154;8.198;2022-12-13T13:19:04;-1.70;99.90
20728;DHT22;10525;50.154;8.198;2022-12-13T13:21:36;-1.60;99.90
20728;DHT22;10525;50.154;8.198;2022-12-13T13:26:48;-1.50;99.90
20728;DHT22;10525;50.154;8.198;2022-12-13T13:29:31;-1.40;99.90
20728;DHT22;10525;50.154;8.198;2022-12-13T13:32:00;-1.40;99.90
20728;DHT22;10525;50.154;8.198;2022-12-13T13:34:31;-1.50;99.90
20728;DHT22;10525;50.154;8.198;2022-12-13T13:36:58;-1.40;99.90
20728;DHT22;10525;50.154;8.198;2022-12-13T13:39:54;-1.40;99.90
20728;DHT22;10525;50.154;8.198;2022-12-13T13:42:22;-1.40;99.90
20728;DHT22;10525;50.154;8.198;2022-12-13T13:47:38;-1.50;99.90
20728;DHT22;10525;50.154;8.198;2022-12-13T13:50:42;-1.60;99.90
20728;DHT22;10525;50.154;8.198;2022-12-13T13:53:43;-1.50;99.90
20728;DHT22;10525;50.154;8.198;2022-12-13T13:56:33;-1.50;99.90
20728;DHT22;10525;50.154;8.198;2022-12-13T14:08:44;-1.80;99.90
20728;DHT22;10525;50.154;8.198;2022-12-13T14:17:59;-2.00;99.90
20728;DHT22;10525;50.154;8.198;2022-12-13T14:20:50;-2.00;99.90
20728;DHT22;10525;50.154;8.198;2022-12-13T14:23:27;-2.00;99.90
20728;DHT22;10525;50.154;8.198;2022-12-13T14:26:08;-2.10;99.90
20728;DHT22;10525;50.154;8.198;2022-12-13T14:28:46;-2.10;99.90
20728;DHT22;10525;50.154;8.198;2022-12-13T14:31:15;-2.00;99.90
20728;DHT22;10525;50.154;8.198;2022-12-13T14:33:43;-2.10;99.90
20728;DHT22;10525;50.154;8.198;2022-12-13T14:36:15;-2.10;99.90
20728;DHT22;10525;50.154;8.198;2022-12-13T14:38:43;-2.10;99.90
20728;DHT22;10525;50.154;8.198;2022-12-13T14:41:15;-2.10;99.90
20728;DHT22;10525;50.154;8.198;2022-12-13T14:43:43;-2.20;99.90
20728;DHT22;10525;50.154;8.198;2022-12-13T14:46:12;-2.20;99.90
20728;DHT22;10525;50.154;8.198;2022-12-13T14:48:44;-2.30;99.90
20728;DHT22;10525;50.154;8.198;2022-12-13T14:51:29;-2.40;99.90
20728;DHT22;10525;50.154;8.198;2022-12-13T14:53:57;-2.50;99.90
20728;DHT22;10525;50.154;8.198;2022-12-13T14:56:24;-2.60;99.90
20728;DHT22;10525;50.154;8.198;2022-12-13T14:58:52;-2.70;99.90
20728;DHT22;10525;50.154;8.198;2022-12-13T15:01:28;-2.70;99.90
20728;DHT22;10525;50.154;8.198;2022-12-13T15:04:17;-2.80;99.90
20728;DHT22;10525;50.154;8.198;2022-12-13T15:06:47;-2.90;99.90
20728;DHT22;10525;50.154;8.198;2022-12-13T15:09:15;-2.90;99.90
20728;DHT22;10525;50.154;8.198;2022-12-13T15:11:43;-2.90;99.90
20728;DHT22;10525;50.154;8.198;2022-12-13T15:14:13;-3.00;99.90
20728;DHT22;10525;50.154;8.198;2022-12-13T15:16:46;-3.00;99.90
20728;DHT22;10525;50.154;8.198;2022-12-13T15:19:15;-3.00;99.90
20728;DHT22;10525;50.154;8.198;2022-12-13T15:21:54;-3.10;99.90
20728;DHT22;10525;50.154;8.198;2022-12-13T15:24:24;-3.10;99.90
20728;DHT22;10525;50.154;8.198;2022-12-13T15:26:54;-3.10;99.90
20728;DHT22;10525;50.154;8.198;2022-12-13T15:29:22;-3.10;99.90
20728;DHT22;10525;50.154;8.198;2022-12-13T15:31:50;-3.10;99.90
20728;DHT22;10525;50.154;8.198;2022-12-13T15:34:31;-3.10;99.90
20728;DHT22;10525;50.154;8.198;2022-12-13T15:37:02;-3.10;99.90
20728;DHT22;10525;50.154;8.198;2022-12-13T15:39:35;-3.10;99.90
20728;DHT22;10525;50.154;8.198;2022-12-13T15:42:02;-3.10;99.90
20728;DHT22;10525;50.154;8.198;2022-12-13T15:44:31;-3.10;99.90
20728;DHT22;10525;50.154;8.198;2022-12-13T15:47:03;-3.20;99.90
20728;DHT22;10525;50.154;8.198;2022-12-13T15:49:31;-3.20;99.90
20728;DHT22;10525;50.154;8.198;2022-12-13T15:52:03;-3.20;99.90
20728;DHT22;10525;50.154;8.198;2022-12-13T15:54:30;-3.20;99.90
20728;DHT22;10525;50.154;8.198;2022-12-13T15:57:00;-3.20;99.90
20728;DHT22;10525;50.154;8.198;2022-12-13T15:59:29;-3.20;99.90
20728;DHT22;10525;50.154;8.198;2022-12-13T16:01:56;-3.20;99.90
20728;DHT22;10525;50.154;8.198;2022-12-13T16:04:26;-3.30;99.90
20728;DHT22;10525;50.154;8.198;2022-12-13T16:06:53;-3.20;99.90
20728;DHT22;10525;50.154;8.198;2022-12-13T16:09:24;-3.30;99.90
20728;DHT22;10525;50.154;8.198;2022-12-13T16:11:54;-3.40;99.90